Larnaca, Cyprus
Current Conditions -  °F | °C
As of 8:00 AM on Saturday 29 Nov 2014 (Local Time) from LCLK Reporting Station
Few Clouds Few Clouds  
Wind Chill: 54°   Ceiling: Unl
Heat Index: 54°   Visibility: 6mi
Dew Point: 46°   Wind: 7mph
Humidity: 77%   Direction: 300°WNW
Pressure: 30.24"   Gusts: NA
Location:  34.92°N, 33.63°E
Report Text: LCLK 290500Z 30006KT 9999 FEW025 12/08 Q1024 NOSIG
Loading
Personal Weather Stations






























Interactive Weather Map New forecast layout! Learn more

10-Day Weather Forecast

Advertisements
Track Severe Weather on mobile